Time;durP1;ratioP1;P1;durP2;ratioP2;P2;SDS_P1;SDS_P2;PMS_P1;PMS_P2;Temp;Humidity;BMP_temperature;BMP_pressure;BME280_temperature;BME280_humidity;BME280_pressure;Samples;Min_cycle;Max_cycle;Signal;HPM_P1;HPM_P2
2022/03/02 00:01:43;;;;;;;23.67;14.30;;;-0.40;99.90;;;;;;5068530;28;20638;-80
2022/03/02 00:04:09;;;;;;;22.20;13.20;;;-1.30;99.90;;;;;;5066649;28;20189;-81
2022/03/02 00:06:35;;;;;;;23.00;14.63;;;-0.60;99.90;;;;;;5067771;28;20446;-83
2022/03/02 00:09:02;;;;;;;23.83;14.67;;;-0.40;99.90;;;;;;5041674;28;20735;-80
2022/03/02 00:11:28;;;;;;;27.65;16.52;;;-0.30;99.90;;;;;;5070114;28;20438;-83
2022/03/02 00:13:55;;;;;;;35.50;16.63;;;-0.30;99.90;;;;;;5068415;28;20172;-81
2022/03/02 00:16:23;;;;;;;22.73;13.73;;;-0.40;99.90;;;;;;5066074;28;20183;-81
2022/03/02 00:18:49;;;;;;;27.77;13.43;;;-0.50;99.90;;;;;;5061378;28;20656;-83
2022/03/02 00:21:15;;;;;;;25.52;13.85;;;-0.50;99.90;;;;;;5064204;28;20188;-82
2022/03/02 00:23:41;;;;;;;28.27;14.65;;;-0.40;99.90;;;;;;5068269;28;20169;-83
2022/03/02 00:26:06;;;;;;;28.97;14.40;;;-0.40;99.90;;;;;;5069479;28;20656;-83
2022/03/02 00:28:32;;;;;;;22.13;14.07;;;-0.30;99.90;;;;;;5063184;28;20263;-82
2022/03/02 00:30:58;;;;;;;27.67;13.00;;;-0.20;99.90;;;;;;5065519;28;20184;-83
2022/03/02 00:33:23;;;;;;;26.70;13.37;;;0.00;99.90;;;;;;5070579;28;20246;-83
2022/03/02 00:35:49;;;;;;;27.00;13.93;;;0.00;99.90;;;;;;5075054;28;20176;-83
2022/03/02 00:38:15;;;;;;;27.50;14.37;;;0.00;99.90;;;;;;5074471;28;20235;-83
2022/03/02 00:40:41;;;;;;;25.70;14.00;;;0.00;99.90;;;;;;5064453;28;20176;-85
2022/03/02 00:43:08;;;;;;;28.90;14.68;;;0.00;99.90;;;;;;5042454;28;20431;-85
2022/03/02 00:45:34;;;;;;;25.40;13.60;;;-0.10;99.90;;;;;;5052223;28;20179;-83
2022/03/02 00:48:01;;;;;;;25.53;14.80;;;-0.10;99.90;;;;;;5068005;28;20211;-82
2022/03/02 00:50:27;;;;;;;23.92;12.60;;;-0.10;99.90;;;;;;5066444;28;20434;-82
2022/03/02 00:52:53;;;;;;;21.30;12.50;;;-0.10;99.90;;;;;;5070405;28;20187;-83
2022/03/02 00:55:19;;;;;;;25.90;12.80;;;-0.10;99.90;;;;;;5069041;28;20188;-83
2022/03/02 00:57:45;;;;;;;26.63;13.07;;;-0.10;99.90;;;;;;5067289;28;20291;-83
2022/03/02 01:00:11;;;;;;;24.88;12.10;;;0.00;99.90;;;;;;5071058;28;20674;-83
2022/03/02 01:02:38;;;;;;;23.58;12.55;;;0.00;99.90;;;;;;5070390;28;20203;-82
2022/03/02 01:05:05;;;;;;;17.85;12.00;;;0.00;99.90;;;;;;5051555;28;20180;-82
2022/03/02 01:07:31;;;;;;;22.40;11.73;;;0.00;99.90;;;;;;5069686;28;20701;-83
2022/03/02 01:09:56;;;;;;;16.77;11.47;;;0.10;99.90;;;;;;5072131;28;20187;-83
2022/03/02 01:12:22;;;;;;;17.80;10.93;;;0.10;99.90;;;;;;5069874;28;20191;-83
2022/03/02 01:14:48;;;;;;;19.83;11.43;;;0.10;99.90;;;;;;5066655;28;20290;-83
2022/03/02 01:17:13;;;;;;;17.70;10.93;;;0.20;99.90;;;;;;5068128;28;20263;-83
2022/03/02 01:19:39;;;;;;;26.20;11.70;;;0.20;99.90;;;;;;5068511;28;20237;-81
2022/03/02 01:22:06;;;;;;;17.63;10.60;;;0.20;99.90;;;;;;5073983;28;20188;-82
2022/03/02 01:24:32;;;;;;;19.25;10.38;;;0.20;99.90;;;;;;5074097;28;20279;-82
2022/03/02 01:26:57;;;;;;;22.43;11.37;;;0.10;99.90;;;;;;5073527;28;20219;-82
2022/03/02 01:29:23;;;;;;;16.33;9.83;;;0.10;99.90;;;;;;5071031;28;20541;-82
2022/03/02 01:31:49;;;;;;;22.13;11.30;;;0.10;99.90;;;;;;5077009;28;20230;-82
2022/03/02 01:34:15;;;;;;;23.87;11.70;;;0.00;99.90;;;;;;5071413;28;20227;-82
2022/03/02 01:36:40;;;;;;;24.90;12.80;;;0.00;99.90;;;;;;5079144;28;20418;-82
2022/03/02 01:39:06;;;;;;;23.97;13.67;;;0.10;99.90;;;;;;5076194;28;20493;-83
2022/03/02 01:41:32;;;;;;;17.50;10.20;;;0.10;99.90;;;;;;5079872;28;20427;-82
2022/03/02 01:43:57;;;;;;;39.33;12.50;;;0.00;99.90;;;;;;5078769;28;20641;-82
2022/03/02 01:46:23;;;;;;;19.30;11.30;;;0.00;99.90;;;;;;5076476;28;20188;-82
2022/03/02 01:48:49;;;;;;;17.45;11.05;;;-0.20;99.90;;;;;;5078476;28;20728;-82
2022/03/02 01:51:15;;;;;;;21.33;11.87;;;-0.20;99.90;;;;;;5077145;28;20176;-82
2022/03/02 01:53:42;;;;;;;21.20;11.30;;;-0.20;99.90;;;;;;5075607;28;20778;-82
2022/03/02 01:56:08;;;;;;;20.95;9.50;;;-0.30;99.90;;;;;;5078842;28;20168;-82
2022/03/02 01:58:33;;;;;;;23.83;12.27;;;-0.40;99.90;;;;;;5078298;28;20295;-82
2022/03/02 02:01:00;;;;;;;19.97;9.70;;;-0.40;99.90;;;;;;5078836;28;20176;-81
2022/03/02 02:03:27;;;;;;;15.77;9.73;;;-0.50;99.90;;;;;;5075664;28;20253;-82
2022/03/02 02:05:52;;;;;;;24.33;11.70;;;-0.50;99.90;;;;;;5076630;28;20222;-82
2022/03/02 02:08:18;;;;;;;22.20;12.73;;;-0.50;99.90;;;;;;5074504;28;20275;-82
2022/03/02 02:10:44;;;;;;;19.63;11.83;;;-0.50;99.90;;;;;;5080171;28;20183;-82
2022/03/02 02:13:10;;;;;;;24.17;12.80;;;-0.50;99.90;;;;;;5074220;28;20181;-82
2022/03/02 02:15:36;;;;;;;19.40;12.20;;;-0.60;99.90;;;;;;5074737;28;20511;-82
2022/03/02 02:18:02;;;;;;;24.13;11.20;;;-0.70;99.90;;;;;;5083338;28;20235;-82
2022/03/02 02:20:37;;;;;;;25.50;12.80;;;-0.80;99.90;;;;;;5076958;28;20460;-81
2022/03/02 02:23:04;;;;;;;19.65;10.00;;;-0.80;99.90;;;;;;5076882;28;20178;-82
2022/03/02 02:25:29;;;;;;;28.60;12.65;;;-0.80;99.90;;;;;;5089208;23;20236;-83
2022/03/02 02:27:55;;;;;;;17.37;10.33;;;-0.90;99.90;;;;;;5032944;28;20260;-84
2022/03/02 02:30:21;;;;;;;20.60;11.37;;;-0.90;99.90;;;;;;5046440;28;20189;-84
2022/03/02 02:32:46;;;;;;;22.30;11.27;;;-1.00;99.90;;;;;;5019904;28;20194;-82
2022/03/02 02:35:12;;;;;;;19.53;10.97;;;-1.10;99.90;;;;;;5042900;28;20206;-84
2022/03/02 02:37:38;;;;;;;23.73;13.10;;;-1.20;99.90;;;;;;5045570;28;20209;-80
2022/03/02 02:40:11;;;;;;;24.55;12.13;;;-1.20;99.90;;;;;;5051380;28;20518;-82
2022/03/02 02:42:39;;;;;;;19.35;11.10;;;-1.30;99.90;;;;;;5032989;28;20276;-80
2022/03/02 02:45:05;;;;;;;23.02;12.15;;;-1.40;99.90;;;;;;5044694;28;20169;-85
2022/03/02 02:47:31;;;;;;;22.70;12.05;;;-1.40;99.90;;;;;;5027419;28;20191;-83
2022/03/02 02:49:57;;;;;;;19.43;12.60;;;-1.50;99.90;;;;;;5032295;28;20185;-83
2022/03/02 02:52:22;;;;;;;26.60;13.13;;;-1.50;99.90;;;;;;5039513;28;20181;-83
2022/03/02 02:54:49;;;;;;;19.77;12.10;;;-1.50;99.90;;;;;;5054748;28;20226;-82
2022/03/02 02:57:16;;;;;;;22.23;11.38;;;-1.40;99.90;;;;;;5052085;28;20397;-88
2022/03/02 02:59:42;;;;;;;23.83;13.73;;;-1.50;99.90;;;;;;5052786;28;20180;-84
2022/03/02 03:02:07;;;;;;;23.10;11.70;;;-1.60;99.90;;;;;;5026347;28;20190;-86
2022/03/02 03:04:33;;;;;;;20.80;11.27;;;-1.70;99.90;;;;;;5055821;28;20185;-84
2022/03/02 03:06:59;;;;;;;18.23;10.20;;;-1.70;99.90;;;;;;5050706;28;20197;-85
2022/03/02 03:09:24;;;;;;;23.13;11.00;;;-1.80;99.90;;;;;;5052478;28;20178;-84
2022/03/02 03:11:50;;;;;;;20.53;11.80;;;-1.90;99.90;;;;;;5044983;28;20182;-81
2022/03/02 03:14:15;;;;;;;23.27;11.90;;;-1.90;99.90;;;;;;5046774;28;20189;-80
2022/03/02 03:16:42;;;;;;;23.23;11.60;;;-2.00;99.90;;;;;;5047213;28;20209;-84
2022/03/02 03:19:08;;;;;;;18.15;10.70;;;-2.00;99.90;;;;;;5035793;28;20177;-84
2022/03/02 03:21:34;;;;;;;17.02;9.57;;;-2.00;99.90;;;;;;5056703;28;20301;-83
2022/03/02 03:24:00;;;;;;;17.27;9.93;;;-2.10;99.90;;;;;;5028630;28;20173;-83
2022/03/02 03:26:25;;;;;;;22.50;11.30;;;-2.10;99.90;;;;;;5038502;28;20304;-81
2022/03/02 03:28:51;;;;;;;23.77;11.87;;;-2.20;99.90;;;;;;5045469;28;20186;-82
2022/03/02 03:31:17;;;;;;;20.37;11.33;;;-2.20;99.90;;;;;;5034857;28;20434;-84
2022/03/02 03:33:42;;;;;;;16.47;10.10;;;-2.20;99.90;;;;;;5054325;28;20215;-81
2022/03/02 03:36:08;;;;;;;14.50;10.07;;;-2.10;99.90;;;;;;5052747;28;20276;-83
2022/03/02 03:38:34;;;;;;;25.30;12.13;;;-2.10;99.90;;;;;;5038027;28;20219;-84
2022/03/02 03:41:00;;;;;;;19.60;10.25;;;-2.00;99.90;;;;;;5027442;28;20222;-82
2022/03/02 03:43:26;;;;;;;24.40;11.40;;;-2.10;99.90;;;;;;5054261;28;20225;-85
2022/03/02 03:45:51;;;;;;;22.37;12.03;;;-2.30;99.90;;;;;;5038004;28;20197;-85
2022/03/02 03:48:17;;;;;;;22.87;13.27;;;-2.20;99.90;;;;;;5058671;28;20259;-84
2022/03/02 03:50:44;;;;;;;22.20;12.35;;;-2.20;99.90;;;;;;5043385;28;20444;-81
2022/03/02 03:53:10;;;;;;;27.25;13.48;;;-2.30;99.90;;;;;;5038375;28;20183;-84
2022/03/02 03:55:38;;;;;;;16.10;9.23;;;-2.30;99.90;;;;;;5033409;28;20231;-82
2022/03/02 03:58:04;;;;;;;18.13;10.80;;;-2.30;99.90;;;;;;5046833;28;20194;-81
2022/03/02 04:00:30;;;;;;;24.00;10.00;;;-2.40;99.90;;;;;;5046185;28;20239;-81
2022/03/02 04:02:55;;;;;;;20.97;10.60;;;-2.50;99.90;;;;;;5031891;28;22161;-79
2022/03/02 04:05:21;;;;;;;19.67;10.70;;;-2.50;99.90;;;;;;5042124;28;20268;-85
2022/03/02 04:07:47;;;;;;;24.20;11.33;;;-2.50;99.90;;;;;;5031771;28;20197;-83
2022/03/02 04:10:13;;;;;;;27.20;11.70;;;-2.50;99.90;;;;;;5049174;28;20201;-83
2022/03/02 04:12:39;;;;;;;16.50;9.93;;;-2.60;99.90;;;;;;5048866;28;20956;-83
2022/03/02 04:15:05;;;;;;;22.27;9.83;;;-2.50;99.90;;;;;;5037932;28;20207;-83
2022/03/02 04:17:30;;;;;;;14.52;8.95;;;-2.50;99.90;;;;;;5056348;28;21206;-85
2022/03/02 04:19:56;;;;;;;21.77;11.80;;;-2.50;99.90;;;;;;5036457;28;20181;-84
2022/03/02 04:22:23;;;;;;;28.17;10.77;;;-2.50;99.90;;;;;;5026222;28;20890;-83
2022/03/02 04:24:48;;;;;;;21.75;10.95;;;-2.50;99.90;;;;;;5031827;28;20556;-82
2022/03/02 04:27:14;;;;;;;17.13;10.07;;;-2.30;99.90;;;;;;5052208;28;20213;-83
2022/03/02 04:29:40;;;;;;;21.10;10.93;;;-2.50;99.90;;;;;;5053413;28;20177;-83
2022/03/02 04:32:06;;;;;;;18.43;9.87;;;-2.60;99.90;;;;;;5053661;28;20649;-82
2022/03/02 04:34:32;;;;;;;17.67;10.18;;;-2.60;99.90;;;;;;5033847;28;20271;-84
2022/03/02 04:36:57;;;;;;;18.00;10.23;;;-2.60;99.90;;;;;;5047663;28;20281;-84
2022/03/02 04:39:23;;;;;;;20.93;10.90;;;-2.60;99.90;;;;;;5037783;28;20177;-86
2022/03/02 04:41:49;;;;;;;22.43;12.17;;;-2.60;99.90;;;;;;5034535;28;20192;-79
2022/03/02 04:44:14;;;;;;;21.47;11.37;;;-2.60;99.90;;;;;;5056032;28;20191;-81
2022/03/02 04:46:40;;;;;;;19.97;11.87;;;-2.60;99.90;;;;;;5053441;28;20227;-82
2022/03/02 04:49:13;;;;;;;20.07;11.10;;;-2.50;99.90;;;;;;5048230;28;20255;-84
2022/03/02 04:51:40;;;;;;;16.15;10.68;;;-2.60;99.90;;;;;;5037708;28;20188;-85
2022/03/02 04:54:06;;;;;;;14.90;10.00;;;-2.70;99.90;;;;;;5049288;28;20788;-84
2022/03/02 04:56:32;;;;;;;16.80;9.45;;;-2.70;99.90;;;;;;5052392;28;20196;-84
2022/03/02 04:58:58;;;;;;;20.10;10.10;;;-2.60;99.90;;;;;;5038528;28;20181;-84
2022/03/02 05:01:23;;;;;;;29.63;10.83;;;-2.60;99.90;;;;;;5056788;28;20454;-81
2022/03/02 05:03:49;;;;;;;19.33;12.33;;;-2.70;99.90;;;;;;5052374;28;20633;-81
2022/03/02 05:06:14;;;;;;;17.73;11.50;;;-2.80;99.90;;;;;;5041444;28;20197;-84
2022/03/02 05:08:40;;;;;;;17.60;10.60;;;-2.90;99.90;;;;;;5032758;28;20635;-85
2022/03/02 05:11:05;;;;;;;21.97;11.90;;;-2.90;99.90;;;;;;5032738;28;20260;-81
2022/03/02 05:13:31;;;;;;;22.03;10.47;;;-2.90;99.90;;;;;;5038238;28;20189;-85
2022/03/02 05:15:56;;;;;;;23.57;11.97;;;-2.90;99.90;;;;;;5048302;28;20197;-84
2022/03/02 05:18:22;;;;;;;22.57;13.07;;;-2.90;99.90;;;;;;5036415;28;20209;-81
2022/03/02 05:20:48;;;;;;;20.90;11.87;;;-2.80;99.90;;;;;;5049720;28;20211;-82
2022/03/02 05:23:13;;;;;;;27.37;12.90;;;-2.70;99.90;;;;;;5048744;28;20211;-80
2022/03/02 05:25:39;;;;;;;22.13;12.10;;;-2.70;99.90;;;;;;5052212;28;20208;-82
2022/03/02 05:28:04;;;;;;;14.53;9.43;;;-2.70;99.90;;;;;;5035430;28;20188;-81
2022/03/02 05:30:30;;;;;;;18.83;10.43;;;-2.80;99.90;;;;;;5030774;28;20185;-80
2022/03/02 05:32:55;;;;;;;16.43;11.20;;;-2.70;99.90;;;;;;5029448;28;20168;-82
2022/03/02 05:35:21;;;;;;;21.60;11.73;;;-2.70;99.90;;;;;;5034604;28;20200;-82
2022/03/02 05:37:47;;;;;;;23.40;11.73;;;-2.70;99.90;;;;;;5028883;28;20205;-81
2022/03/02 05:40:15;;;;;;;20.80;11.67;;;-2.60;99.90;;;;;;5030483;28;20385;-81
2022/03/02 05:42:42;;;;;;;24.08;10.63;;;-2.50;99.90;;;;;;5042497;28;21684;-83
2022/03/02 05:45:09;;;;;;;19.17;11.20;;;-2.30;99.90;;;;;;5041973;28;20233;-82
2022/03/02 05:47:35;;;;;;;19.05;11.38;;;-2.30;99.90;;;;;;5047486;28;20194;-83
2022/03/02 05:50:01;;;;;;;20.23;11.43;;;-2.20;99.90;;;;;;5029053;28;20177;-82
2022/03/02 05:52:27;;;;;;;21.05;11.20;;;-2.10;99.90;;;;;;5051458;28;20226;-81
2022/03/02 05:54:52;;;;;;;26.07;14.10;;;-2.20;99.90;;;;;;5046808;28;20431;-82
2022/03/02 05:57:18;;;;;;;21.00;12.30;;;-2.20;99.90;;;;;;5042218;28;20259;-80
2022/03/02 05:59:44;;;;;;;25.60;12.95;;;-2.20;99.90;;;;;;5051089;28;20168;-81
2022/03/02 06:02:09;;;;;;;39.17;20.03;;;-2.00;99.90;;;;;;5037112;28;20237;-83
2022/03/02 06:04:36;;;;;;;27.70;17.00;;;-1.90;99.90;;;;;;5023230;28;20199;-81
2022/03/02 06:07:01;;;;;;;24.95;13.23;;;-1.80;99.90;;;;;;5041077;28;20239;-79
2022/03/02 06:09:27;;;;;;;18.47;11.43;;;-1.80;99.90;;;;;;5022032;28;20217;-83
2022/03/02 06:11:53;;;;;;;21.97;11.40;;;-1.90;99.90;;;;;;5024391;28;20189;-80
2022/03/02 06:14:19;;;;;;;24.27;12.90;;;-1.90;99.90;;;;;;5045203;28;20553;-80
2022/03/02 06:16:45;;;;;;;21.27;11.53;;;-1.90;99.90;;;;;;5027491;28;20458;-80
2022/03/02 06:19:12;;;;;;;23.55;12.70;;;-1.80;99.90;;;;;;5028155;28;20923;-79
2022/03/02 06:21:40;;;;;;;19.65;12.70;;;-1.70;99.90;;;;;;5028747;28;20180;-82
2022/03/02 06:24:06;;;;;;;29.52;12.50;;;-1.60;99.90;;;;;;5033659;28;20928;-81
2022/03/02 06:26:32;;;;;;;21.05;12.70;;;-1.60;99.90;;;;;;5025600;28;20213;-82
2022/03/02 06:28:58;;;;;;;20.90;13.87;;;-1.50;99.90;;;;;;5032244;28;20208;-83
2022/03/02 06:31:23;;;;;;;23.50;13.50;;;-1.30;99.90;;;;;;5044200;28;20439;-84
2022/03/02 06:33:49;;;;;;;19.90;11.60;;;-1.00;99.90;;;;;;5030981;28;20180;-81
2022/03/02 06:36:15;;;;;;;20.43;13.17;;;-1.00;99.90;;;;;;5030075;28;20205;-82
2022/03/02 06:38:41;;;;;;;25.08;14.38;;;-1.10;99.90;;;;;;5032038;28;20954;-84
2022/03/02 06:41:30;;;;;;;20.53;13.00;;;-1.00;99.90;;;;;;5038377;28;20188;-81
2022/03/02 06:44:18;;;;;;;19.25;12.18;;;-1.00;99.90;;;;;;5040148;28;20458;-83
2022/03/02 06:46:55;;;;;;;26.30;13.18;;;-1.00;99.90;;;;;;5043609;28;20744;-81
2022/03/02 06:49:28;;;;;;;29.30;14.20;;;-1.00;99.90;;;;;;5045894;28;20204;-82
2022/03/02 06:51:58;;;;;;;21.35;12.18;;;-0.90;99.90;;;;;;5019003;28;20712;-84
2022/03/02 06:54:27;;;;;;;24.10;13.70;;;-0.90;99.90;;;;;;5024074;28;20227;-80
2022/03/02 06:56:57;;;;;;;24.33;12.50;;;-0.70;99.90;;;;;;5043838;28;20493;-84
2022/03/02 06:59:28;;;;;;;26.10;14.43;;;-0.50;99.90;;;;;;5029946;28;20239;-83
2022/03/02 07:02:01;;;;;;;27.42;13.80;;;-0.30;99.90;;;;;;5029205;28;20774;-82
2022/03/02 07:04:27;;;;;;;24.33;12.32;;;-0.20;99.90;;;;;;5040745;28;20189;-82
2022/03/02 07:06:55;;;;;;;23.67;12.33;;;-0.10;99.90;;;;;;5030847;28;20200;-83
2022/03/02 07:09:21;;;;;;;21.40;12.50;;;0.00;99.90;;;;;;5033134;28;20180;-82
2022/03/02 07:11:47;;;;;;;19.27;12.48;;;0.20;99.90;;;;;;5030063;28;20181;-82
2022/03/02 07:14:15;;;;;;;24.73;12.68;;;0.30;99.90;;;;;;5033174;28;20212;-79
2022/03/02 07:16:43;;;;;;;21.42;12.65;;;0.50;99.90;;;;;;5032827;28;20209;-82
2022/03/02 07:19:09;;;;;;;29.38;13.68;;;0.50;99.90;;;;;;5038012;28;20216;-84
2022/03/02 07:21:37;;;;;;;26.30;14.07;;;0.60;99.90;;;;;;5044807;28;20210;-81
2022/03/02 07:24:17;;;;;;;23.98;13.68;;;0.80;99.90;;;;;;5043656;28;20174;-81
2022/03/02 07:26:45;;;;;;;25.60;13.68;;;0.90;99.90;;;;;;5041088;28;20279;-83
2022/03/02 07:29:14;;;;;;;24.25;12.30;;;0.80;99.90;;;;;;5029444;28;20189;-82
2022/03/02 07:31:41;;;;;;;21.63;12.73;;;0.90;99.90;;;;;;5046618;28;20279;-80
2022/03/02 07:34:10;;;;;;;20.92;12.38;;;1.10;99.90;;;;;;5033127;28;20268;-83
2022/03/02 07:36:36;;;;;;;27.52;14.57;;;1.30;99.90;;;;;;5028276;28;20197;-81
2022/03/02 07:39:02;;;;;;;23.17;13.50;;;1.40;99.90;;;;;;5044264;28;20293;-79
2022/03/02 07:41:28;;;;;;;24.45;14.23;;;1.30;99.90;;;;;;5043378;28;20189;-84
2022/03/02 07:43:54;;;;;;;28.08;15.23;;;1.30;99.90;;;;;;5025287;28;20177;-81
2022/03/02 07:46:20;;;;;;;24.17;12.73;;;1.30;99.90;;;;;;5027900;28;20258;-81
2022/03/02 07:48:46;;;;;;;33.00;13.40;;;1.00;99.90;;;;;;5027904;28;20189;-80
2022/03/02 07:51:11;;;;;;;20.90;13.23;;;1.00;99.90;;;;;;5026752;28;20443;-81
2022/03/02 07:53:40;;;;;;;26.33;14.30;;;1.10;99.90;;;;;;5020769;28;20192;-82
2022/03/02 07:56:08;;;;;;;28.98;13.40;;;1.10;99.90;;;;;;5021686;28;20697;-81
2022/03/02 07:58:39;;;;;;;21.50;13.23;;;1.20;99.90;;;;;;5031921;28;20206;-78
2022/03/02 08:01:06;;;;;;;26.33;13.45;;;1.20;99.90;;;;;;5050852;28;20170;-82
2022/03/02 08:03:37;;;;;;;22.20;13.77;;;1.40;99.90;;;;;;5028219;28;20268;-81
2022/03/02 08:06:03;;;;;;;26.98;13.02;;;1.60;99.90;;;;;;5027186;28;20192;-81
2022/03/02 08:08:28;;;;;;;28.80;14.25;;;1.80;99.90;;;;;;5039153;28;20181;-78
2022/03/02 08:10:54;;;;;;;32.03;14.77;;;1.90;99.90;;;;;;5025700;28;20250;-81
2022/03/02 08:13:20;;;;;;;28.90;14.45;;;2.00;99.90;;;;;;5026286;28;20185;-82
2022/03/02 08:15:45;;;;;;;25.07;14.43;;;2.40;99.90;;;;;;5031186;28;20208;-84
2022/03/02 08:18:11;;;;;;;22.93;13.70;;;2.20;99.90;;;;;;5027806;28;20201;-81
2022/03/02 08:20:44;;;;;;;21.67;13.30;;;2.10;99.90;;;;;;5028092;28;20247;-82
2022/03/02 08:23:10;;;;;;;22.55;12.90;;;2.40;99.90;;;;;;5027527;28;20189;-85
2022/03/02 08:25:37;;;;;;;21.55;13.05;;;2.80;99.90;;;;;;5025456;28;20738;-80
2022/03/02 08:28:09;;;;;;;27.48;13.68;;;3.20;99.90;;;;;;5037201;23;20229;-88
2022/03/02 08:30:37;;;;;;;17.38;11.82;;;3.30;99.90;;;;;;5017586;28;20177;-89
2022/03/02 08:33:03;;;;;;;17.90;12.68;;;3.50;99.90;;;;;;4997886;28;20174;-88
2022/03/02 08:35:34;;;;;;;18.25;11.15;;;3.70;99.90;;;;;;5016491;28;20185;-88
2022/03/02 08:38:01;;;;;;;21.88;11.60;;;3.90;99.90;;;;;;5013750;28;20693;-90
2022/03/02 08:40:28;;;;;;;21.00;11.82;;;4.60;99.90;;;;;;4991617;28;20229;-88
2022/03/02 08:42:57;;;;;;;32.75;13.73;;;4.50;99.90;;;;;;4998177;28;20183;-88
2022/03/02 08:45:23;;;;;;;18.83;12.30;;;5.20;99.90;;;;;;4993696;28;20681;-88
2022/03/02 08:47:49;;;;;;;20.13;12.68;;;4.40;99.90;;;;;;5003058;28;20182;-89
2022/03/02 08:50:15;;;;;;;23.08;12.55;;;4.90;99.90;;;;;;5004557;28;21178;-90
2022/03/02 08:52:42;;;;;;;21.05;12.43;;;6.50;99.90;;;;;;5000922;28;20277;-89
2022/03/02 08:55:12;;;;;;;21.02;11.20;;;4.70;99.90;;;;;;5005271;28;20249;-88
2022/03/02 08:57:42;;;;;;;18.55;11.65;;;4.20;99.90;;;;;;5024931;28;20277;-88
2022/03/02 09:00:08;;;;;;;25.27;13.45;;;4.50;99.90;;;;;;5007633;28;20210;-89
2022/03/02 09:02:39;;;;;;;22.85;11.25;;;4.80;99.90;;;;;;5000752;28;20568;-89
2022/03/02 09:05:07;;;;;;;19.35;11.52;;;4.80;99.90;;;;;;5004903;28;20186;-87
2022/03/02 09:07:33;;;;;;;20.27;13.02;;;5.70;99.90;;;;;;5000789;28;20277;-87
2022/03/02 09:09:59;;;;;;;30.67;12.23;;;6.30;99.90;;;;;;4998871;28;20178;-87
2022/03/02 09:12:25;;;;;;;22.80;12.35;;;6.70;99.90;;;;;;5009989;28;20210;-88
2022/03/02 09:14:52;;;;;;;23.47;11.43;;;;;;;;;;5005166;28;20205;-89
2022/03/02 09:17:19;;;;;;;18.85;12.85;;;6.30;99.90;;;;;;5018548;28;20990;-88
2022/03/02 09:19:45;;;;;;;25.00;12.43;;;5.60;99.90;;;;;;5004970;28;20189;-88
2022/03/02 09:22:11;;;;;;;22.08;13.10;;;5.60;99.90;;;;;;5009660;28;20630;-89
2022/03/02 09:24:38;;;;;;;24.70;14.10;;;5.70;99.90;;;;;;5010705;28;20186;-88
2022/03/02 09:27:07;;;;;;;20.02;12.43;;;5.70;99.90;;;;;;5008011;28;20205;-88
2022/03/02 09:29:33;;;;;;;22.73;13.50;;;5.60;99.90;;;;;;5002016;28;20817;-88
2022/03/02 09:31:59;;;;;;;24.83;13.20;;;;;;;;;;5003771;28;20304;-89
2022/03/02 09:34:28;;;;;;;19.88;12.07;;;6.20;99.90;;;;;;5003736;28;21371;-88
2022/03/02 09:36:55;;;;;;;24.42;14.07;;;5.80;99.90;;;;;;5002000;28;20192;-88
2022/03/02 09:39:21;;;;;;;18.17;11.98;;;5.60;99.90;;;;;;4992675;28;20186;-88
2022/03/02 09:42:10;;;;;;;21.50;11.07;;;5.40;99.90;;;;;;5004762;28;20616;-88
2022/03/02 09:44:52;;;;;;;21.83;12.75;;;5.90;99.90;;;;;;5021941;28;20187;-88
2022/03/02 09:47:21;;;;;;;22.40;11.75;;;6.00;99.90;;;;;;5025049;28;20166;-88
2022/03/02 09:49:53;;;;;;;19.25;11.65;;;6.40;99.90;;;;;;5005712;28;20186;-89
2022/03/02 09:52:20;;;;;;;18.92;11.55;;;6.40;99.90;;;;;;5006052;28;20281;-88
2022/03/02 09:54:50;;;;;;;19.30;11.50;;;6.50;99.90;;;;;;5019707;28;20277;-88
2022/03/02 09:57:18;;;;;;;19.00;11.40;;;6.50;99.90;;;;;;5019897;28;20213;-88
2022/03/02 09:59:52;;;;;;;19.55;11.15;;;7.30;99.90;;;;;;5017272;28;20193;-88
2022/03/02 10:02:39;;;;;;;20.55;11.38;;;7.30;99.90;;;;;;5000442;28;20253;-87
2022/03/02 10:05:11;;;;;;;28.27;11.98;;;8.30;99.90;;;;;;5000785;28;20604;-87
2022/03/02 10:07:40;;;;;;;16.60;11.40;;;8.70;99.90;;;;;;5005650;28;20201;-88
2022/03/02 10:10:10;;;;;;;33.30;11.57;;;9.00;99.90;;;;;;5018962;28;20187;-88
2022/03/02 10:12:37;;;;;;;20.75;11.00;;;8.10;99.90;;;;;;5017514;28;20253;-88
2022/03/02 10:15:09;;;;;;;24.05;11.60;;;7.50;99.90;;;;;;4999529;28;20190;-88
2022/03/02 10:17:37;;;;;;;20.88;11.15;;;7.60;99.90;;;;;;4999163;28;20221;-89
2022/03/02 10:20:13;;;;;;;22.00;12.27;;;7.50;99.90;;;;;;5014676;28;20269;-88
2022/03/02 10:23:25;;;;;;;16.33;11.02;;;6.90;99.90;;;;;;5035290;23;20243;-87
2022/03/02 10:26:15;;;;;;;19.40;9.60;;;6.40;99.90;;;;;;5037490;28;20182;-87
2022/03/02 10:29:03;;;;;;;24.67;15.93;;;6.50;99.90;;;;;;5031010;28;20276;-87
2022/03/02 10:32:05;;;;;;;18.73;14.13;;;6.40;99.90;;;;;;5031083;28;20234;-87
2022/03/02 10:34:34;;;;;;;19.08;11.60;;;6.70;99.90;;;;;;5022921;28;20187;-85
2022/03/02 10:37:35;;;;;;;21.40;11.50;;;7.00;99.90;;;;;;5013234;28;20216;-84
2022/03/02 10:40:24;;;;;;;15.77;9.38;;;7.00;99.90;;;;;;5026947;28;20585;-85
2022/03/02 10:42:58;;;;;;;16.27;10.63;;;6.90;99.90;;;;;;5001811;28;20186;-86
2022/03/02 10:45:35;;;;;;;15.80;10.55;;;7.10;99.90;;;;;;5009839;28;20181;-86
2022/03/02 10:48:13;;;;;;;22.98;12.75;;;7.30;99.90;;;;;;5018771;28;20319;-85
2022/03/02 10:50:41;;;;;;;20.60;10.95;;;7.50;99.90;;;;;;5010735;28;20870;-86
2022/03/02 10:53:16;;;;;;;19.35;10.73;;;7.50;99.90;;;;;;5011177;28;20212;-86
2022/03/02 10:55:47;;;;;;;15.93;10.02;;;7.70;99.00;;;;;;5022141;28;20269;-85
2022/03/02 10:58:15;;;;;;;17.05;10.63;;;7.50;98.40;;;;;;5011558;28;20304;-86
2022/03/02 11:00:44;;;;;;;14.88;10.63;;;7.40;99.10;;;;;;5002705;28;20313;-86
2022/03/02 11:03:10;;;;;;;32.15;18.65;;;7.30;99.60;;;;;;5027249;28;20637;-86
2022/03/02 11:05:36;;;;;;;21.52;12.40;;;7.00;99.60;;;;;;5004364;28;20186;-86
2022/03/02 11:08:03;;;;;;;18.77;10.57;;;7.20;99.70;;;;;;5001769;28;20236;-85
2022/03/02 11:10:37;;;;;;;17.70;10.40;;;7.50;99.90;;;;;;5029048;28;20858;-87
2022/03/02 11:13:12;;;;;;;18.90;10.45;;;7.50;98.60;;;;;;5020971;28;20185;-86
2022/03/02 11:15:51;;;;;;;16.13;9.80;;;7.40;98.30;;;;;;5006202;28;20204;-86
2022/03/02 11:18:19;;;;;;;16.75;10.85;;;7.80;99.20;;;;;;5002799;28;20300;-85
2022/03/02 11:20:57;;;;;;;14.75;10.40;;;7.90;97.80;;;;;;5023456;28;20216;-86
2022/03/02 11:23:23;;;;;;;16.35;10.10;;;8.20;95.50;;;;;;5001906;28;20700;-86
2022/03/02 11:25:52;;;;;;;18.70;10.70;;;8.30;95.80;;;;;;5029714;28;20174;-86
2022/03/02 11:28:27;;;;;;;14.25;10.80;;;8.50;96.00;;;;;;5008240;28;20551;-86
2022/03/02 11:31:04;;;;;;;23.15;11.43;;;9.00;95.80;;;;;;5028795;28;20219;-85
2022/03/02 11:33:30;;;;;;;15.15;10.18;;;9.30;95.10;;;;;;5009071;28;20192;-86
2022/03/02 11:36:02;;;;;;;18.42;10.77;;;9.60;95.00;;;;;;5014637;28;20177;-86
2022/03/02 11:38:31;;;;;;;35.72;20.30;;;9.80;94.00;;;;;;5028828;28;24291;-86
2022/03/02 11:40:57;;;;;;;18.92;12.27;;;9.40;93.70;;;;;;5027407;28;20213;-87
2022/03/02 11:43:29;;;;;;;18.65;12.20;;;9.30;93.90;;;;;;5031018;28;20327;-85
2022/03/02 11:46:03;;;;;;;19.15;11.48;;;8.90;94.30;;;;;;5012142;28;20181;-85
2022/03/02 11:48:37;;;;;;;19.45;12.75;;;8.90;94.50;;;;;;5032774;28;20223;-86
2022/03/02 11:51:15;;;;;;;16.17;10.20;;;8.80;94.20;;;;;;5031041;28;20181;-86
2022/03/02 11:54:09;;;;;;;14.88;11.02;;;8.80;94.70;;;;;;5019614;28;20189;-87
2022/03/02 11:56:35;;;;;;;15.10;9.93;;;9.00;93.70;;;;;;5014068;28;20217;-86
2022/03/02 11:59:09;;;;;;;21.25;10.25;;;9.00;94.00;;;;;;5006597;28;20314;-85
2022/03/02 12:01:44;;;;;;;16.73;10.98;;;9.20;91.90;;;;;;5013979;28;20186;-87
2022/03/02 12:04:10;;;;;;;26.17;11.25;;;9.10;91.80;;;;;;5013393;28;20176;-86
2022/03/02 12:06:55;;;;;;;21.45;10.35;;;9.10;91.10;;;;;;5011617;28;20221;-85
2022/03/02 12:09:36;;;;;;;16.88;9.80;;;8.80;91.60;;;;;;5007338;28;20277;-86
2022/03/02 12:12:15;;;;;;;17.77;9.65;;;8.80;91.20;;;;;;5006801;28;20217;-85
2022/03/02 12:14:50;;;;;;;13.88;9.65;;;8.90;91.20;;;;;;5013896;28;20190;-87
2022/03/02 12:17:24;;;;;;;14.65;9.02;;;9.00;90.50;;;;;;5029681;28;20208;-86
2022/03/02 12:19:54;;;;;;;17.77;9.15;;;8.70;90.60;;;;;;5021574;28;20185;-85
2022/03/02 12:22:30;;;;;;;14.45;8.30;;;8.50;89.80;;;;;;5026188;28;20199;-86
2022/03/02 12:24:58;;;;;;;13.20;8.35;;;;;;;;;;5026148;28;20289;-85
2022/03/02 12:27:24;;;;;;;12.13;8.73;;;;;;;;;;5028356;28;20319;-87
2022/03/02 12:29:59;;;;;;;11.25;8.90;;;8.10;88.40;;;;;;5013313;28;20194;-87
2022/03/02 12:32:30;;;;;;;14.73;8.20;;;8.30;90.10;;;;;;5002953;28;20239;-86
2022/03/02 12:34:57;;;;;;;17.70;9.30;;;8.30;89.40;;;;;;5003628;28;20272;-86
2022/03/02 12:37:22;;;;;;;16.33;9.52;;;8.20;87.50;;;;;;5031858;28;20299;-86
2022/03/02 12:39:49;;;;;;;13.03;8.70;;;8.60;89.20;;;;;;5025703;28;20555;-85